Sunday, March 24, 2019, 7:58 PM EDT
Back to Local

KIJD, Willimantic Windham Airport

Location: North Windham, CT, United States Lat: 41.75
Local Time: 7:58 PM EDT (23:58 GMT) Lon: -72.183
Time Zone: US/Eastern Elev: 246 ft

Show me the last for .
Show Decoded

2019-03-24 18:52 METAR KIJD 242252Z AUTO 22005KT 10SM CLR 10/M08 A2998 RMK AO2 SLP152 T01001078 =
2019-03-24 17:52 METAR KIJD 242152Z AUTO 23007KT 10SM CLR 11/M08 A2998 RMK AO2 SLP151 T01061083 =
2019-03-24 16:52 METAR KIJD 242052Z AUTO 21010KT 10SM CLR 11/M06 A2998 RMK AO2 SLP152 T01111056
                 56022 =
2019-03-24 15:52 METAR KIJD 241952Z AUTO 25007KT 10SM CLR 13/M09 A2999 RMK AO2 SLP157 T01281089 =
2019-03-24 14:52 METAR KIJD 241852Z AUTO 24010KT 10SM CLR 13/M09 A3000 RMK AO2 SLP161 T01281089 =
2019-03-24 13:52 METAR KIJD 241752Z AUTO 28008G16KT 10SM CLR 12/M09 A3004 RMK AO2 SLP174
                 T01221089 10128 20017 58025 =
2019-03-24 12:52 METAR KIJD 241652Z AUTO 27006KT 10SM CLR 11/M08 A3007 RMK AO2 SLP182 T01111083 =
2019-03-24 11:52 METAR KIJD 241552Z AUTO 25008KT 10SM CLR 09/M08 A3009 RMK AO2 SLP192 T00891078 =
2019-03-24 10:52 METAR KIJD 241452Z AUTO 27009G15KT 10SM CLR 07/M08 A3012 RMK AO2 SLP200
                 T00671078 58001 =
2019-03-24 09:52 METAR KIJD 241352Z AUTO 27010KT 10SM CLR 05/M08 A3013 RMK AO2 SLP205 T00501083 =
2019-03-24 08:52 METAR KIJD 241252Z AUTO 28008KT 10SM CLR 03/M08 A3012 RMK AO2 SLP202 T00331083 =
2019-03-24 07:52 METAR KIJD 241152Z AUTO 27006KT 10SM CLR 02/M09 A3012 RMK AO2 SLP201 T00171089
                 10017 20000 53007 =
2019-03-24 06:52 METAR KIJD 241052Z AUTO 31007KT 10SM CLR 01/M09 A3010 RMK AO2 SLP195 T00061094 =
2019-03-24 05:52 METAR KIJD 240952Z AUTO VRB05KT 10SM CLR 00/M09 A3008 RMK AO2 SLP189 T00001094 =
2019-03-24 04:52 METAR KIJD 240852Z AUTO 31008G15KT 10SM CLR 01/M09 A3010 RMK AO2 SLP193
                 T00061094 53011 =
2019-03-24 03:52 METAR KIJD 240752Z AUTO 29008KT 10SM CLR 01/M11 A3008 RMK AO2 SLP187 T00061106 =
2019-03-24 02:52 METAR KIJD 240652Z AUTO 31007KT 280V340 10SM CLR 01/M11 A3007 RMK AO2 SLP186
                 T00061111 =
2019-03-24 01:52 METAR KIJD 240552Z AUTO 31007KT 10SM CLR 01/M11 A3006 RMK AO2 SLP182 T00061111
                 10022 21006 51008 =
2019-03-24 00:52 METAR KIJD 240452Z AUTO VRB04KT 10SM CLR 00/M12 A3006 RMK AO2 SLP181 T00001117
                 400611017 =
2019-03-23 23:52 METAR KIJD 240352Z AUTO VRB03KT 10SM CLR 00/M11 A3005 RMK AO2 SLP178 T00001111 =
2019-03-23 22:52 METAR KIJD 240252Z AUTO 32008G17KT 10SM CLR 00/M11 A3004 RMK AO2 SLP175
                 T00001111 51030 =
2019-03-23 21:52 METAR KIJD 240152Z AUTO 30012G23KT 10SM CLR 01/M11 A3002 RMK AO2 PK WND
                 29026/0137 SLP167 T00061111 =
2019-03-23 20:52 METAR KIJD 240052Z AUTO 30010G21KT 10SM CLR 01/M11 A2999 RMK AO2 SLP157
                 T00111106 =

Support USWX by starting your Amazon purchase here.